sensor_id;sensor_type;location;lat;lon;timestamp;pressure;altitude;pressure_sealevel;temperature;humidity
42511;BME280;28141;51.120;17.114;2023-02-13T00:01:05;103697.98;;;25.04;29.72
42511;BME280;28141;51.120;17.114;2023-02-13T00:04:08;103712.38;;;25.07;30.11
42511;BME280;28141;51.120;17.114;2023-02-13T00:07:12;103700.91;;;25.10;29.67
42511;BME280;28141;51.120;17.114;2023-02-13T00:10:16;103709.07;;;25.12;29.39
42511;BME280;28141;51.120;17.114;2023-02-13T00:13:19;103695.20;;;25.12;29.35
42511;BME280;28141;51.120;17.114;2023-02-13T00:16:23;103694.88;;;25.15;29.95
42511;BME280;28141;51.120;17.114;2023-02-13T00:19:26;103701.13;;;25.17;29.20
42511;BME280;28141;51.120;17.114;2023-02-13T00:22:57;103696.95;;;25.13;29.56
42511;BME280;28141;51.120;17.114;2023-02-13T00:26:06;103691.06;;;25.16;29.26
42511;BME280;28141;51.120;17.114;2023-02-13T00:29:09;103694.53;;;25.18;29.57
42511;BME280;28141;51.120;17.114;2023-02-13T00:32:13;103697.28;;;25.10;29.72
42511;BME280;28141;51.120;17.114;2023-02-13T00:35:17;103696.77;;;25.06;29.65
42511;BME280;28141;51.120;17.114;2023-02-13T00:38:20;103686.01;;;25.03;29.61
42511;BME280;28141;51.120;17.114;2023-02-13T00:41:24;103684.27;;;25.10;30.05
42511;BME280;28141;51.120;17.114;2023-02-13T00:44:28;103690.36;;;25.06;29.64
42511;BME280;28141;51.120;17.114;2023-02-13T00:47:55;103700.59;;;25.05;29.60
42511;BME280;28141;51.120;17.114;2023-02-13T00:50:59;103703.89;;;25.09;29.80
42511;BME280;28141;51.120;17.114;2023-02-13T00:54:02;103695.57;;;25.09;29.27
42511;BME280;28141;51.120;17.114;2023-02-13T00:57:06;103692.80;;;25.09;29.53
42511;BME280;28141;51.120;17.114;2023-02-13T01:00:10;103694.69;;;25.08;29.30
42511;BME280;28141;51.120;17.114;2023-02-13T01:03:15;103695.03;;;25.05;29.51
42511;BME280;28141;51.120;17.114;2023-02-13T01:06:19;103697.48;;;25.08;29.36
42511;BME280;28141;51.120;17.114;2023-02-13T01:09:22;103694.88;;;25.07;29.55
42511;BME280;28141;51.120;17.114;2023-02-13T01:12:53;103697.61;;;24.99;29.58
42511;BME280;28141;51.120;17.114;2023-02-13T01:15:57;103684.44;;;25.01;29.35
42511;BME280;28141;51.120;17.114;2023-02-13T01:19:00;103686.70;;;25.05;29.57
42511;BME280;28141;51.120;17.114;2023-02-13T01:22:03;103687.59;;;24.98;29.83
42511;BME280;28141;51.120;17.114;2023-02-13T01:25:07;103683.55;;;24.92;29.65
42511;BME280;28141;51.120;17.114;2023-02-13T01:28:10;103695.19;;;24.96;29.68
42511;BME280;28141;51.120;17.114;2023-02-13T01:31:14;103678.73;;;25.02;29.68
42511;BME280;28141;51.120;17.114;2023-02-13T01:34:17;103681.66;;;25.01;29.57
42511;BME280;28141;51.120;17.114;2023-02-13T01:37:20;103681.66;;;24.93;29.69
42511;BME280;28141;51.120;17.114;2023-02-13T01:40:51;103684.11;;;25.04;29.63
42511;BME280;28141;51.120;17.114;2023-02-13T01:43:57;103681.49;;;25.10;29.45
42511;BME280;28141;51.120;17.114;2023-02-13T01:47:01;103673.18;;;25.10;29.28
42511;BME280;28141;51.120;17.114;2023-02-13T01:50:12;103673.01;;;25.04;29.50
42511;BME280;28141;51.120;17.114;2023-02-13T01:53:22;103676.82;;;24.95;29.68
42511;BME280;28141;51.120;17.114;2023-02-13T01:56:35;103677.36;;;24.98;29.77
42511;BME280;28141;51.120;17.114;2023-02-13T02:00:11;103673.87;;;24.96;29.68
42511;BME280;28141;51.120;17.114;2023-02-13T02:03:20;103661.22;;;25.02;29.59
42511;BME280;28141;51.120;17.114;2023-02-13T02:06:32;103658.97;;;24.97;29.66
42511;BME280;28141;51.120;17.114;2023-02-13T02:09:39;103653.93;;;25.01;29.65
42511;BME280;28141;51.120;17.114;2023-02-13T02:16:24;103667.45;;;24.96;29.72
42511;BME280;28141;51.120;17.114;2023-02-13T02:29:50;103658.44;;;24.94;29.69
42511;BME280;28141;51.120;17.114;2023-02-13T02:33:06;103657.70;;;24.92;29.66
42511;BME280;28141;51.120;17.114;2023-02-13T02:39:36;103644.53;;;24.86;29.89
42511;BME280;28141;51.120;17.114;2023-02-13T02:43:12;103663.24;;;24.92;29.82
42511;BME280;28141;51.120;17.114;2023-02-13T02:46:26;103651.69;;;24.96;29.92
42511;BME280;28141;51.120;17.114;2023-02-13T02:49:37;103653.76;;;24.94;29.70
42511;BME280;28141;51.120;17.114;2023-02-13T02:56:39;103649.72;;;24.89;29.74
42511;BME280;28141;51.120;17.114;2023-02-13T02:59:45;103654.63;;;24.95;29.77
42511;BME280;28141;51.120;17.114;2023-02-13T03:03:13;103650.95;;;24.86;30.23
42511;BME280;28141;51.120;17.114;2023-02-13T03:06:58;103665.64;;;24.79;29.96
42511;BME280;28141;51.120;17.114;2023-02-13T03:10:10;103659.61;;;24.91;29.95
42511;BME280;28141;51.120;17.114;2023-02-13T03:16:42;103658.57;;;24.84;29.75
42511;BME280;28141;51.120;17.114;2023-02-13T03:23:59;103649.70;;;24.72;29.81
42511;BME280;28141;51.120;17.114;2023-02-13T03:27:15;103649.70;;;24.81;30.16
42511;BME280;28141;51.120;17.114;2023-02-13T03:34:06;103648.51;;;24.83;29.90
42511;BME280;28141;51.120;17.114;2023-02-13T03:37:13;103655.95;;;24.83;30.00
42511;BME280;28141;51.120;17.114;2023-02-13T03:41:03;103659.27;;;24.86;30.00
42511;BME280;28141;51.120;17.114;2023-02-13T03:44:32;103656.29;;;24.80;29.78
42511;BME280;28141;51.120;17.114;2023-02-13T03:47:40;103661.84;;;24.80;30.06
42511;BME280;28141;51.120;17.114;2023-02-13T03:50:44;103656.49;;;24.86;30.07
42511;BME280;28141;51.120;17.114;2023-02-13T03:54:20;103663.24;;;24.92;30.03
42511;BME280;28141;51.120;17.114;2023-02-13T03:57:39;103661.50;;;24.83;29.96
42511;BME280;28141;51.120;17.114;2023-02-13T04:00:59;103663.07;;;24.85;30.44
42511;BME280;28141;51.120;17.114;2023-02-13T04:07:45;103662.80;;;24.96;29.92
42511;BME280;28141;51.120;17.114;2023-02-13T04:10:56;103652.19;;;25.00;29.77
42511;BME280;28141;51.120;17.114;2023-02-13T04:17:21;103651.52;;;24.98;29.65
42511;BME280;28141;51.120;17.114;2023-02-13T04:20:48;103652.16;;;24.92;29.93
42511;BME280;28141;51.120;17.114;2023-02-13T04:23:52;103646.31;;;24.95;29.86
42511;BME280;28141;51.120;17.114;2023-02-13T04:26:55;103641.10;;;25.00;30.01
42511;BME280;28141;51.120;17.114;2023-02-13T04:29:59;103647.01;;;24.97;29.98
42511;BME280;28141;51.120;17.114;2023-02-13T04:33:03;103645.62;;;24.93;30.36
42511;BME280;28141;51.120;17.114;2023-02-13T04:36:07;103645.41;;;24.86;30.30
42511;BME280;28141;51.120;17.114;2023-02-13T04:39:11;103653.89;;;24.85;30.01
42511;BME280;28141;51.120;17.114;2023-02-13T04:42:14;103648.18;;;24.86;30.23
42511;BME280;28141;51.120;17.114;2023-02-13T04:45:49;103656.49;;;24.86;30.11
42511;BME280;28141;51.120;17.114;2023-02-13T04:48:53;103651.98;;;24.85;30.33
42511;BME280;28141;51.120;17.114;2023-02-13T04:51:57;103644.53;;;24.86;29.83
42511;BME280;28141;51.120;17.114;2023-02-13T04:55:00;103649.05;;;24.87;30.09
42511;BME280;28141;51.120;17.114;2023-02-13T04:58:03;103637.24;;;24.85;29.83
42511;BME280;28141;51.120;17.114;2023-02-13T05:01:14;103637.24;;;24.85;30.16
42511;BME280;28141;51.120;17.114;2023-02-13T05:04:18;103632.38;;;24.79;30.04
42511;BME280;28141;51.120;17.114;2023-02-13T05:07:47;103628.77;;;24.86;30.18
42511;BME280;28141;51.120;17.114;2023-02-13T05:10:50;103637.76;;;24.88;29.89
42511;BME280;28141;51.120;17.114;2023-02-13T05:13:54;103624.95;;;24.87;30.40
42511;BME280;28141;51.120;17.114;2023-02-13T05:16:57;103623.56;;;24.91;30.11
42511;BME280;28141;51.120;17.114;2023-02-13T05:20:01;103626.02;;;24.94;30.21
42511;BME280;28141;51.120;17.114;2023-02-13T05:23:04;103632.21;;;24.88;30.35
42511;BME280;28141;51.120;17.114;2023-02-13T05:26:20;103631.18;;;24.81;30.16
42511;BME280;28141;51.120;17.114;2023-02-13T05:29:48;103631.01;;;24.91;30.51
42511;BME280;28141;51.120;17.114;2023-02-13T05:32:51;103634.11;;;24.88;30.63
42511;BME280;28141;51.120;17.114;2023-02-13T05:35:56;103629.97;;;24.92;30.34
42511;BME280;28141;51.120;17.114;2023-02-13T05:39:00;103631.88;;;24.91;30.44
42511;BME280;28141;51.120;17.114;2023-02-13T05:42:03;103633.47;;;24.94;30.43
42511;BME280;28141;51.120;17.114;2023-02-13T05:45:08;103639.02;;;24.94;30.50
42511;BME280;28141;51.120;17.114;2023-02-13T05:48:12;103627.60;;;24.97;30.62
42511;BME280;28141;51.120;17.114;2023-02-13T05:51:15;103634.18;;;24.96;30.85
42511;BME280;28141;51.120;17.114;2023-02-13T05:54:45;103643.54;;;24.95;30.65
42511;BME280;28141;51.120;17.114;2023-02-13T05:57:48;103638.69;;;24.97;30.74
42511;BME280;28141;51.120;17.114;2023-02-13T06:00:55;103641.80;;;25.02;30.48
42511;BME280;28141;51.120;17.114;2023-02-13T06:04:03;103642.84;;;25.01;30.95
42511;BME280;28141;51.120;17.114;2023-02-13T06:07:06;103648.57;;;25.07;30.79
42511;BME280;28141;51.120;17.114;2023-02-13T06:10:10;103652.39;;;24.98;30.87
42511;BME280;28141;51.120;17.114;2023-02-13T06:13:14;103645.77;;;24.99;30.88
42511;BME280;28141;51.120;17.114;2023-02-13T06:16:18;103649.95;;;24.95;30.57
42511;BME280;28141;51.120;17.114;2023-02-13T06:19:45;103645.97;;;25.06;30.97
42511;BME280;28141;51.120;17.114;2023-02-13T06:22:50;103649.78;;;25.05;30.66
42511;BME280;28141;51.120;17.114;2023-02-13T06:25:53;103660.55;;;25.08;31.07
42511;BME280;28141;51.120;17.114;2023-02-13T06:28:57;103654.63;;;25.11;30.97
42511;BME280;28141;51.120;17.114;2023-02-13T06:32:00;103660.53;;;25.16;31.13
42511;BME280;28141;51.120;17.114;2023-02-13T06:35:04;103659.13;;;25.20;31.04
42511;BME280;28141;51.120;17.114;2023-02-13T06:38:08;103660.20;;;25.27;31.32
42511;BME280;28141;51.120;17.114;2023-02-13T06:41:11;103664.71;;;25.36;31.17
42511;BME280;28141;51.120;17.114;2023-02-13T06:44:15;103660.89;;;25.37;31.17
42511;BME280;28141;51.120;17.114;2023-02-13T06:47:46;103670.59;;;25.33;31.08
42511;BME280;28141;51.120;17.114;2023-02-13T06:50:50;103666.45;;;25.37;31.16
42511;BME280;28141;51.120;17.114;2023-02-13T06:53:56;103674.05;;;25.43;31.09
42511;BME280;28141;51.120;17.114;2023-02-13T06:56:59;103665.92;;;25.50;31.21
42511;BME280;28141;51.120;17.114;2023-02-13T07:00:04;103660.53;;;25.49;31.35
42511;BME280;28141;51.120;17.114;2023-02-13T07:03:08;103666.95;;;25.57;31.10
42511;BME280;28141;51.120;17.114;2023-02-13T07:06:17;103660.52;;;25.57;31.26
42511;BME280;28141;51.120;17.114;2023-02-13T07:09:20;103663.46;;;25.55;31.06
42511;BME280;28141;51.120;17.114;2023-02-13T07:12:52;103656.87;;;25.56;31.51
42511;BME280;28141;51.120;17.114;2023-02-13T07:15:59;103656.70;;;25.58;32.11
42511;BME280;28141;51.120;17.114;2023-02-13T07:19:03;103660.17;;;25.60;31.84
42511;BME280;28141;51.120;17.114;2023-02-13T07:22:06;103649.63;;;25.63;31.60
42511;BME280;28141;51.120;17.114;2023-02-13T07:25:10;103654.63;;;25.60;31.59
42511;BME280;28141;51.120;17.114;2023-02-13T07:28:13;103650.30;;;25.65;31.94
42511;BME280;28141;51.120;17.114;2023-02-13T07:31:17;103648.05;;;25.69;31.95
42511;BME280;28141;51.120;17.114;2023-02-13T07:34:20;103652.22;;;25.73;31.69
42511;BME280;28141;51.120;17.114;2023-02-13T07:37:26;103646.31;;;25.68;31.55
42511;BME280;28141;51.120;17.114;2023-02-13T07:41:00;103648.56;;;25.64;31.78
42511;BME280;28141;51.120;17.114;2023-02-13T07:44:04;103655.49;;;25.68;31.57
42511;BME280;28141;51.120;17.114;2023-02-13T07:47:07;103654.30;;;25.71;31.61
42511;BME280;28141;51.120;17.114;2023-02-13T07:50:12;103649.74;;;25.78;31.96
42511;BME280;28141;51.120;17.114;2023-02-13T07:53:16;103648.72;;;25.79;31.97
42511;BME280;28141;51.120;17.114;2023-02-13T07:56:19;103654.62;;;25.76;32.29
42511;BME280;28141;51.120;17.114;2023-02-13T07:59:23;103653.73;;;25.75;31.79
42511;BME280;28141;51.120;17.114;2023-02-13T08:02:27;103655.65;;;25.75;31.81
42511;BME280;28141;51.120;17.114;2023-02-13T08:05:31;103650.96;;;25.75;31.99
42511;BME280;28141;51.120;17.114;2023-02-13T08:08:35;103652.88;;;25.83;32.04
42511;BME280;28141;51.120;17.114;2023-02-13T08:12:09;103656.01;;;25.80;31.83
42511;BME280;28141;51.120;17.114;2023-02-13T08:15:14;103663.30;;;25.81;31.73
42511;BME280;28141;51.120;17.114;2023-02-13T08:18:18;103662.07;;;25.75;31.74
42511;BME280;28141;51.120;17.114;2023-02-13T08:21:21;103662.28;;;25.74;31.79
42511;BME280;28141;51.120;17.114;2023-02-13T08:24:25;103652.22;;;25.73;31.95
42511;BME280;28141;51.120;17.114;2023-02-13T08:27:29;103652.70;;;25.76;32.15
42511;BME280;28141;51.120;17.114;2023-02-13T08:30:32;103656.53;;;25.84;32.01
42511;BME280;28141;51.120;17.114;2023-02-13T08:33:36;103654.93;;;25.89;31.73
42511;BME280;28141;51.120;17.114;2023-02-13T08:36:39;103662.41;;;25.89;32.08
42511;BME280;28141;51.120;17.114;2023-02-13T08:39:43;103655.48;;;25.85;31.68
42511;BME280;28141;51.120;17.114;2023-02-13T08:43:15;103641.60;;;25.76;31.93
42511;BME280;28141;51.120;17.114;2023-02-13T08:46:18;103658.05;;;25.86;32.04
42511;BME280;28141;51.120;17.114;2023-02-13T08:49:22;103654.93;;;25.89;31.89
42511;BME280;28141;51.120;17.114;2023-02-13T08:52:25;103649.39;;;25.89;32.13
42511;BME280;28141;51.120;17.114;2023-02-13T08:55:29;103653.92;;;25.82;31.74
42511;BME280;28141;51.120;17.114;2023-02-13T08:58:34;103655.10;;;25.88;31.80
42511;BME280;28141;51.120;17.114;2023-02-13T09:01:37;103661.22;;;25.83;31.86
42511;BME280;28141;51.120;17.114;2023-02-13T09:04:41;103671.25;;;25.92;31.64
42511;BME280;28141;51.120;17.114;2023-02-13T09:07:44;103658.07;;;25.94;31.89
42511;BME280;28141;51.120;17.114;2023-02-13T09:10:57;103662.93;;;25.92;31.70
42511;BME280;28141;51.120;17.114;2023-02-13T09:14:27;103668.47;;;25.92;32.03
42511;BME280;28141;51.120;17.114;2023-02-13T09:17:30;103673.68;;;25.87;32.28
42511;BME280;28141;51.120;17.114;2023-02-13T09:20:34;103676.28;;;25.89;32.04
42511;BME280;28141;51.120;17.114;2023-02-13T09:23:40;103679.93;;;25.89;32.32
42511;BME280;28141;51.120;17.114;2023-02-13T09:26:44;103678.54;;;25.85;32.34
42511;BME280;28141;51.120;17.114;2023-02-13T09:29:47;103688.61;;;25.86;32.33
42511;BME280;28141;51.120;17.114;2023-02-13T09:32:52;103699.74;;;25.78;32.33
42511;BME280;28141;51.120;17.114;2023-02-13T09:35:56;103696.95;;;25.86;32.21
42511;BME280;28141;51.120;17.114;2023-02-13T09:38:59;103706.49;;;25.92;32.35
42511;BME280;28141;51.120;17.114;2023-02-13T09:42:16;103706.68;;;25.90;31.77
42511;BME280;28141;51.120;17.114;2023-02-13T09:45:46;103714.48;;;25.95;31.94
42511;BME280;28141;51.120;17.114;2023-02-13T09:48:58;103705.95;;;25.96;31.63
42511;BME280;28141;51.120;17.114;2023-02-13T09:52:02;103712.20;;;26.06;31.61
42511;BME280;28141;51.120;17.114;2023-02-13T09:55:13;103713.56;;;26.10;31.22
42511;BME280;28141;51.120;17.114;2023-02-13T10:01:40;103715.13;;;26.13;30.96
42511;BME280;28141;51.120;17.114;2023-02-13T10:18:49;103710.05;;;26.33;30.64
42511;BME280;28141;51.120;17.114;2023-02-13T10:21:58;103708.44;;;26.46;30.57
42511;BME280;28141;51.120;17.114;2023-02-13T10:25:09;103700.74;;;26.57;30.25
42511;BME280;28141;51.120;17.114;2023-02-13T10:28:25;103702.48;;;26.58;30.60
42511;BME280;28141;51.120;17.114;2023-02-13T10:31:27;103698.14;;;26.55;30.08
42511;BME280;28141;51.120;17.114;2023-02-13T10:35:01;103699.83;;;26.64;30.00
42511;BME280;28141;51.120;17.114;2023-02-13T10:58:20;103688.23;;;26.61;29.34
42511;BME280;28141;51.120;17.114;2023-02-13T11:01:56;103672.42;;;26.53;29.40
42511;BME280;28141;51.120;17.114;2023-02-13T11:08:21;103679.32;;;26.65;28.99
42511;BME280;28141;51.120;17.114;2023-02-13T11:11:33;103677.52;;;26.72;29.23
42511;BME280;28141;51.120;17.114;2023-02-13T11:14:37;103665.75;;;26.70;29.10
42511;BME280;28141;51.120;17.114;2023-02-13T11:17:46;103664.88;;;26.70;28.86
42511;BME280;28141;51.120;17.114;2023-02-13T11:21:21;103666.92;;;26.76;28.89
42511;BME280;28141;51.120;17.114;2023-02-13T11:24:26;103665.36;;;26.73;28.74
42511;BME280;28141;51.120;17.114;2023-02-13T11:27:35;103665.11;;;26.83;28.74
42511;BME280;28141;51.120;17.114;2023-02-13T11:30:40;103655.73;;;26.84;28.82
42511;BME280;28141;51.120;17.114;2023-02-13T11:33:43;103657.35;;;26.78;29.21
42511;BME280;28141;51.120;17.114;2023-02-13T11:36:51;103659.95;;;26.80;28.90
42511;BME280;28141;51.120;17.114;2023-02-13T11:39:58;103649.87;;;26.79;29.22
42511;BME280;28141;51.120;17.114;2023-02-13T11:43:02;103650.34;;;26.82;29.25
42511;BME280;28141;51.120;17.114;2023-02-13T11:46:48;103654.23;;;26.73;28.89
42511;BME280;28141;51.120;17.114;2023-02-13T11:49:52;103648.67;;;26.73;28.98
42511;BME280;28141;51.120;17.114;2023-02-13T11:53:02;103657.07;;;26.65;28.65
42511;BME280;28141;51.120;17.114;2023-02-13T11:56:12;103658.30;;;26.63;28.81
42511;BME280;28141;51.120;17.114;2023-02-13T11:59:16;103659.31;;;26.70;28.97
42511;BME280;28141;51.120;17.114;2023-02-13T12:02:47;103666.10;;;26.67;28.80
42511;BME280;28141;51.120;17.114;2023-02-13T12:09:17;103667.91;;;26.52;28.47
42511;BME280;28141;51.120;17.114;2023-02-13T12:15:36;103668.77;;;26.52;29.06
42511;BME280;28141;51.120;17.114;2023-02-13T12:18:44;103662.18;;;26.53;29.05
42511;BME280;28141;51.120;17.114;2023-02-13T12:29:01;103656.16;;;26.42;28.93
42511;BME280;28141;51.120;17.114;2023-02-13T12:35:31;103638.67;;;26.25;29.03
42511;BME280;28141;51.120;17.114;2023-02-13T12:42:34;103630.86;;;26.21;29.18
42511;BME280;28141;51.120;17.114;2023-02-13T12:45:44;103642.32;;;26.17;29.35
42511;BME280;28141;51.120;17.114;2023-02-13T12:56:01;103643.99;;;25.96;28.66
42511;BME280;28141;51.120;17.114;2023-02-13T12:59:08;103639.13;;;25.90;28.59
42511;BME280;28141;51.120;17.114;2023-02-13T13:24:24;103638.62;;;25.86;28.60
42511;BME280;28141;51.120;17.114;2023-02-13T13:27:35;103641.88;;;25.98;28.38
42511;BME280;28141;51.120;17.114;2023-02-13T13:30:41;103651.58;;;26.10;28.31
42511;BME280;28141;51.120;17.114;2023-02-13T13:33:46;103642.37;;;26.09;28.47
42511;BME280;28141;51.120;17.114;2023-02-13T13:36:57;103642.70;;;26.14;28.24
42511;BME280;28141;51.120;17.114;2023-02-13T13:40:20;103639.59;;;26.09;28.05
42511;BME280;28141;51.120;17.114;2023-02-13T13:50:22;103619.66;;;25.98;28.23
42511;BME280;28141;51.120;17.114;2023-02-13T13:53:27;103629.73;;;25.99;28.20
42511;BME280;28141;51.120;17.114;2023-02-13T14:03:34;103615.84;;;25.99;27.97
42511;BME280;28141;51.120;17.114;2023-02-13T14:09:52;103612.15;;;26.14;28.34
42511;BME280;28141;51.120;17.114;2023-02-13T14:13:00;103625.30;;;26.21;28.16
42511;BME280;28141;51.120;17.114;2023-02-13T14:16:38;103625.82;;;26.24;28.07
42511;BME280;28141;51.120;17.114;2023-02-13T14:19:48;103614.54;;;26.17;27.94
42511;BME280;28141;51.120;17.114;2023-02-13T14:22:54;103604.80;;;26.22;27.83
42511;BME280;28141;51.120;17.114;2023-02-13T14:29:22;103598.46;;;26.05;27.87
42511;BME280;28141;51.120;17.114;2023-02-13T14:32:55;103595.13;;;26.09;28.17
42511;BME280;28141;51.120;17.114;2023-02-13T14:36:07;103588.00;;;26.15;27.89
42511;BME280;28141;51.120;17.114;2023-02-13T14:39:25;103592.01;;;26.12;28.17
42511;BME280;28141;51.120;17.114;2023-02-13T14:42:30;103589.23;;;26.12;28.39
42511;BME280;28141;51.120;17.114;2023-02-13T14:45:46;103580.20;;;26.10;28.10
42511;BME280;28141;51.120;17.114;2023-02-13T14:49:26;103570.81;;;26.11;28.01
42511;BME280;28141;51.120;17.114;2023-02-13T14:52:37;103560.11;;;26.00;28.20
42511;BME280;28141;51.120;17.114;2023-02-13T14:55:47;103570.12;;;26.09;28.66
42511;BME280;28141;51.120;17.114;2023-02-13T14:59:04;103573.92;;;26.16;28.18
42511;BME280;28141;51.120;17.114;2023-02-13T15:02:43;103569.60;;;26.14;27.96
42511;BME280;28141;51.120;17.114;2023-02-13T15:05:51;103561.74;;;26.17;27.65
42511;BME280;28141;51.120;17.114;2023-02-13T15:08:59;103546.50;;;26.13;27.44
42511;BME280;28141;51.120;17.114;2023-02-13T15:15:26;103552.28;;;26.04;28.20
42511;BME280;28141;51.120;17.114;2023-02-13T15:18:56;103553.67;;;26.00;27.79
42511;BME280;28141;51.120;17.114;2023-02-13T15:22:01;103552.13;;;25.97;27.86
42511;BME280;28141;51.120;17.114;2023-02-13T15:25:07;103559.41;;;25.98;27.78
42511;BME280;28141;51.120;17.114;2023-02-13T15:28:20;103571.55;;;26.05;27.68
42511;BME280;28141;51.120;17.114;2023-02-13T15:31:24;103570.91;;;25.95;27.56
42511;BME280;28141;51.120;17.114;2023-02-13T15:34:29;103562.76;;;25.94;27.91
42511;BME280;28141;51.120;17.114;2023-02-13T15:37:36;103558.07;;;25.94;27.88
42511;BME280;28141;51.120;17.114;2023-02-13T15:40:41;103549.91;;;25.93;28.00
42511;BME280;28141;51.120;17.114;2023-02-13T15:44:23;103569.53;;;25.91;27.71
42511;BME280;28141;51.120;17.114;2023-02-13T15:47:30;103561.55;;;25.88;27.51
42511;BME280;28141;51.120;17.114;2023-02-13T15:50:35;103549.57;;;25.88;27.74
42511;BME280;28141;51.120;17.114;2023-02-13T15:56:57;103549.61;;;25.79;27.87
42511;BME280;28141;51.120;17.114;2023-02-13T16:00:02;103560.20;;;25.84;27.85
42511;BME280;28141;51.120;17.114;2023-02-13T16:03:34;103553.95;;;25.82;27.70
42511;BME280;28141;51.120;17.114;2023-02-13T16:06:41;103543.31;;;25.86;27.23
42511;BME280;28141;51.120;17.114;2023-02-13T16:09:45;103553.77;;;25.84;28.00
42511;BME280;28141;51.120;17.114;2023-02-13T16:12:49;103557.08;;;25.79;27.88
42511;BME280;28141;51.120;17.114;2023-02-13T16:15:53;103549.09;;;25.84;27.60
42511;BME280;28141;51.120;17.114;2023-02-13T16:18:56;103558.98;;;25.78;27.33
42511;BME280;28141;51.120;17.114;2023-02-13T16:22:13;103547.01;;;25.78;27.99
42511;BME280;28141;51.120;17.114;2023-02-13T16:25:26;103539.02;;;25.75;27.72
42511;BME280;28141;51.120;17.114;2023-02-13T16:28:56;103533.51;;;25.67;27.78
42511;BME280;28141;51.120;17.114;2023-02-13T16:32:10;103546.70;;;25.73;27.90
42511;BME280;28141;51.120;17.114;2023-02-13T16:35:25;103541.80;;;25.75;27.59
42511;BME280;28141;51.120;17.114;2023-02-13T16:38:38;103542.54;;;25.69;27.74
42511;BME280;28141;51.120;17.114;2023-02-13T16:41:42;103542.02;;;25.73;27.95
42511;BME280;28141;51.120;17.114;2023-02-13T16:44:45;103542.37;;;25.70;27.67
42511;BME280;28141;51.120;17.114;2023-02-13T16:48:15;103556.23;;;25.70;27.84
42511;BME280;28141;51.120;17.114;2023-02-13T16:54:34;103536.07;;;25.76;27.90
42511;BME280;28141;51.120;17.114;2023-02-13T16:57:40;103539.41;;;25.72;28.08
42511;BME280;28141;51.120;17.114;2023-02-13T17:00:49;103532.66;;;25.66;27.83
42511;BME280;28141;51.120;17.114;2023-02-13T17:03:53;103533.51;;;25.67;27.57
42511;BME280;28141;51.120;17.114;2023-02-13T17:06:56;103535.59;;;25.73;28.05
42511;BME280;28141;51.120;17.114;2023-02-13T17:13:41;103535.42;;;25.66;27.97
42511;BME280;28141;51.120;17.114;2023-02-13T17:16:45;103520.84;;;25.72;28.19
42511;BME280;28141;51.120;17.114;2023-02-13T17:19:49;103525.35;;;25.73;27.75
42511;BME280;28141;51.120;17.114;2023-02-13T17:22:54;103530.91;;;25.65;28.33
42511;BME280;28141;51.120;17.114;2023-02-13T17:25:58;103523.62;;;25.72;28.42
42511;BME280;28141;51.120;17.114;2023-02-13T17:29:02;103508.13;;;25.78;28.11
42511;BME280;28141;51.120;17.114;2023-02-13T17:32:07;103505.01;;;25.81;28.58
42511;BME280;28141;51.120;17.114;2023-02-13T17:35:12;103520.10;;;25.78;28.13
42511;BME280;28141;51.120;17.114;2023-02-13T17:38:16;103525.63;;;25.87;28.79
42511;BME280;28141;51.120;17.114;2023-02-13T17:41:19;103523.35;;;25.90;27.98
42511;BME280;28141;51.120;17.114;2023-02-13T17:44:50;103521.31;;;25.84;28.21
42511;BME280;28141;51.120;17.114;2023-02-13T17:47:55;103526.17;;;25.82;28.19
42511;BME280;28141;51.120;17.114;2023-02-13T17:51:02;103531.04;;;25.80;28.24
42511;BME280;28141;51.120;17.114;2023-02-13T17:54:09;103527.73;;;25.85;28.05
42511;BME280;28141;51.120;17.114;2023-02-13T17:57:15;103524.09;;;25.84;28.37
42511;BME280;28141;51.120;17.114;2023-02-13T18:00:20;103534.98;;;25.86;28.54
42511;BME280;28141;51.120;17.114;2023-02-13T18:03:24;103524.27;;;25.74;28.28
42511;BME280;28141;51.120;17.114;2023-02-13T18:06:27;103530.34;;;25.78;28.37
42511;BME280;28141;51.120;17.114;2023-02-13T18:09:31;103513.87;;;25.76;28.71
42511;BME280;28141;51.120;17.114;2023-02-13T18:13:01;103518.38;;;25.77;28.49
42511;BME280;28141;51.120;17.114;2023-02-13T18:16:09;103514.41;;;25.72;28.57
42511;BME280;28141;51.120;17.114;2023-02-13T18:19:12;103518.02;;;25.80;28.39
42511;BME280;28141;51.120;17.114;2023-02-13T18:22:16;103503.09;;;25.81;28.70
42511;BME280;28141;51.120;17.114;2023-02-13T18:25:20;103512.98;;;25.84;28.40
42511;BME280;28141;51.120;17.114;2023-02-13T18:28:25;103534.51;;;25.82;28.80
42511;BME280;28141;51.120;17.114;2023-02-13T18:31:31;103526.34;;;25.80;28.59
42511;BME280;28141;51.120;17.114;2023-02-13T18:34:35;103509.18;;;25.77;28.63
42511;BME280;28141;51.120;17.114;2023-02-13T18:37:39;103506.08;;;25.72;28.37
42511;BME280;28141;51.120;17.114;2023-02-13T18:41:11;103505.58;;;25.68;28.66
42511;BME280;28141;51.120;17.114;2023-02-13T18:44:15;103512.33;;;25.74;28.45
42511;BME280;28141;51.120;17.114;2023-02-13T18:47:18;103519.59;;;25.75;28.78
42511;BME280;28141;51.120;17.114;2023-02-13T18:50:22;103521.01;;;25.71;28.67
42511;BME280;28141;51.120;17.114;2023-02-13T18:53:26;103513.73;;;25.70;28.58
42511;BME280;28141;51.120;17.114;2023-02-13T18:56:29;103518.93;;;25.73;28.29
42511;BME280;28141;51.120;17.114;2023-02-13T18:59:33;103519.10;;;25.71;28.63
42511;BME280;28141;51.120;17.114;2023-02-13T19:02:36;103514.41;;;25.72;28.71